sensor_id;sensor_type;location;lat;lon;timestamp;pressure;altitude;pressure_sealevel;temperature;humidity
25658;BME280;13517;59.320;18.042;2023-01-29T00:01:21;100703.03;;;-0.57;100.00
25658;BME280;13517;59.320;18.042;2023-01-29T00:03:49;100738.81;;;-0.30;100.00
25658;BME280;13517;59.320;18.042;2023-01-29T00:06:15;100724.00;;;-0.42;100.00
25658;BME280;13517;59.320;18.042;2023-01-29T00:08:40;100755.56;;;-0.26;100.00
25658;BME280;13517;59.320;18.042;2023-01-29T00:11:07;100764.25;;;-0.19;100.00
25658;BME280;13517;59.320;18.042;2023-01-29T00:13:33;100771.38;;;-0.20;100.00
25658;BME280;13517;59.320;18.042;2023-01-29T00:15:59;100695.84;;;-0.50;100.00
25658;BME280;13517;59.320;18.042;2023-01-29T00:18:26;100753.63;;;-0.18;100.00
25658;BME280;13517;59.320;18.042;2023-01-29T00:20:51;100724.81;;;-0.38;100.00
25658;BME280;13517;59.320;18.042;2023-01-29T00:23:17;100735.44;;;-0.39;100.00
25658;BME280;13517;59.320;18.042;2023-01-29T00:25:43;100720.34;;;-0.37;100.00
25658;BME280;13517;59.320;18.042;2023-01-29T00:28:09;100730.84;;;-0.31;100.00
25658;BME280;13517;59.320;18.042;2023-01-29T00:30:35;100727.38;;;-0.33;100.00
25658;BME280;13517;59.320;18.042;2023-01-29T00:33:02;100750.97;;;-0.18;100.00
25658;BME280;13517;59.320;18.042;2023-01-29T00:35:27;100742.41;;;-0.34;100.00
25658;BME280;13517;59.320;18.042;2023-01-29T00:37:56;100773.94;;;-0.17;100.00
25658;BME280;13517;59.320;18.042;2023-01-29T00:40:22;100732.78;;;-0.39;100.00
25658;BME280;13517;59.320;18.042;2023-01-29T00:42:48;100728.41;;;-0.42;100.00
25658;BME280;13517;59.320;18.042;2023-01-29T00:45:32;100768.00;;;-0.30;100.00
25658;BME280;13517;59.320;18.042;2023-01-29T00:47:58;100751.25;;;-0.32;100.00
25658;BME280;13517;59.320;18.042;2023-01-29T00:50:24;100752.16;;;-0.34;100.00
25658;BME280;13517;59.320;18.042;2023-01-29T00:52:49;100753.03;;;-0.34;100.00
25658;BME280;13517;59.320;18.042;2023-01-29T00:55:17;100667.25;;;-0.81;100.00
25658;BME280;13517;59.320;18.042;2023-01-29T00:57:42;100744.25;;;-0.37;100.00
25658;BME280;13517;59.320;18.042;2023-01-29T01:00:10;100738.91;;;-0.34;100.00
25658;BME280;13517;59.320;18.042;2023-01-29T01:02:36;100747.50;;;-0.23;100.00
25658;BME280;13517;59.320;18.042;2023-01-29T01:05:20;100739.66;;;-0.29;100.00
25658;BME280;13517;59.320;18.042;2023-01-29T01:07:47;100746.69;;;-0.25;100.00
25658;BME280;13517;59.320;18.042;2023-01-29T01:10:19;100725.66;;;-0.37;100.00
25658;BME280;13517;59.320;18.042;2023-01-29T01:13:00;100744.03;;;-0.26;100.00
25658;BME280;13517;59.320;18.042;2023-01-29T01:15:32;100737.06;;;-0.31;100.00
25658;BME280;13517;59.320;18.042;2023-01-29T01:17:59;100746.69;;;-0.25;100.00
25658;BME280;13517;59.320;18.042;2023-01-29T01:20:28;100740.47;;;-0.25;100.00
25658;BME280;13517;59.320;18.042;2023-01-29T01:22:54;100739.53;;;-0.23;100.00
25658;BME280;13517;59.320;18.042;2023-01-29T01:25:22;100667.78;;;-0.64;100.00
25658;BME280;13517;59.320;18.042;2023-01-29T01:27:51;100735.97;;;-0.22;100.00
25658;BME280;13517;59.320;18.042;2023-01-29T01:30:17;100682.63;;;-0.53;100.00
25658;BME280;13517;59.320;18.042;2023-01-29T01:32:42;100658.06;;;-0.63;100.00
25658;BME280;13517;59.320;18.042;2023-01-29T01:35:09;100717.50;;;-0.26;100.00
25658;BME280;13517;59.320;18.042;2023-01-29T01:37:36;100715.84;;;-0.32;100.00
25658;BME280;13517;59.320;18.042;2023-01-29T01:40:07;100690.34;;;-0.41;100.00
25658;BME280;13517;59.320;18.042;2023-01-29T01:42:38;100698.28;;;-0.39;100.00
25658;BME280;13517;59.320;18.042;2023-01-29T01:45:06;100706.13;;;-0.33;100.00
25658;BME280;13517;59.320;18.042;2023-01-29T01:50:08;100630.94;;;-0.78;100.00
25658;BME280;13517;59.320;18.042;2023-01-29T01:52:38;100700.94;;;-0.39;100.00
25658;BME280;13517;59.320;18.042;2023-01-29T01:55:06;100664.19;;;-0.60;100.00
25658;BME280;13517;59.320;18.042;2023-01-29T01:57:34;100675.53;;;-0.53;100.00
25658;BME280;13517;59.320;18.042;2023-01-29T02:00:13;100684.25;;;-0.46;100.00
25658;BME280;13517;59.320;18.042;2023-01-29T02:02:41;100649.16;;;-0.61;100.00
25658;BME280;13517;59.320;18.042;2023-01-29T02:05:26;100658.63;;;-0.47;100.00
25658;BME280;13517;59.320;18.042;2023-01-29T02:08:11;100635.16;;;-0.69;100.00
25658;BME280;13517;59.320;18.042;2023-01-29T02:10:57;100622.84;;;-0.72;100.00
25658;BME280;13517;59.320;18.042;2023-01-29T02:13:22;100650.81;;;-0.55;100.00
25658;BME280;13517;59.320;18.042;2023-01-29T02:15:48;100637.50;;;-0.53;100.00
25658;BME280;13517;59.320;18.042;2023-01-29T02:18:15;100619.16;;;-0.64;100.00
25658;BME280;13517;59.320;18.042;2023-01-29T02:24:09;100642.69;;;-0.47;100.00
25658;BME280;13517;59.320;18.042;2023-01-29T02:29:12;100571.88;;;-0.88;100.00
25658;BME280;13517;59.320;18.042;2023-01-29T02:37:40;100619.91;;;-0.56;100.00
25658;BME280;13517;59.320;18.042;2023-01-29T02:46:31;100597.84;;;-0.60;100.00
25658;BME280;13517;59.320;18.042;2023-01-29T02:52:08;100597.09;;;-0.66;100.00
25658;BME280;13517;59.320;18.042;2023-01-29T02:54:50;100573.53;;;-0.82;100.00
25658;BME280;13517;59.320;18.042;2023-01-29T02:57:23;100573.47;;;-0.79;100.00
25658;BME280;13517;59.320;18.042;2023-01-29T02:59:57;100541.03;;;-0.93;100.00
25658;BME280;13517;59.320;18.042;2023-01-29T03:05:14;100560.38;;;-0.88;100.00
25658;BME280;13517;59.320;18.042;2023-01-29T03:07:47;100528.81;;;-1.01;100.00
25658;BME280;13517;59.320;18.042;2023-01-29T03:12:48;100530.91;;;-1.17;100.00
25658;BME280;13517;59.320;18.042;2023-01-29T03:15:19;100556.09;;;-0.94;100.00
25658;BME280;13517;59.320;18.042;2023-01-29T03:18:06;100565.63;;;-0.85;100.00
25658;BME280;13517;59.320;18.042;2023-01-29T03:20:35;100492.31;;;-1.32;100.00
25658;BME280;13517;59.320;18.042;2023-01-29T03:23:08;100535.91;;;-1.01;100.00
25658;BME280;13517;59.320;18.042;2023-01-29T03:25:37;100537.75;;;-1.05;100.00
25658;BME280;13517;59.320;18.042;2023-01-29T03:28:23;100571.00;;;-0.88;100.00
25658;BME280;13517;59.320;18.042;2023-01-29T03:31:11;100554.28;;;-0.93;100.00
25658;BME280;13517;59.320;18.042;2023-01-29T03:34:00;100555.06;;;-0.87;100.00
25658;BME280;13517;59.320;18.042;2023-01-29T03:36:39;100547.91;;;-0.83;100.00
25658;BME280;13517;59.320;18.042;2023-01-29T03:39:10;100555.16;;;-0.91;100.00
25658;BME280;13517;59.320;18.042;2023-01-29T03:41:56;100544.47;;;-0.87;100.00
25658;BME280;13517;59.320;18.042;2023-01-29T03:50:40;100550.69;;;-0.89;100.00
25658;BME280;13517;59.320;18.042;2023-01-29T03:55:54;100522.75;;;-1.07;100.00
25658;BME280;13517;59.320;18.042;2023-01-29T04:01:24;100530.53;;;-1.00;100.00
25658;BME280;13517;59.320;18.042;2023-01-29T04:04:04;100518.16;;;-0.98;100.00
25658;BME280;13517;59.320;18.042;2023-01-29T04:06:34;100531.25;;;-0.90;100.00
25658;BME280;13517;59.320;18.042;2023-01-29T04:09:10;100509.41;;;-1.03;100.00
25658;BME280;13517;59.320;18.042;2023-01-29T04:11:40;100508.47;;;-0.99;100.00
25658;BME280;13517;59.320;18.042;2023-01-29T04:14:08;100516.09;;;-0.83;100.00
25658;BME280;13517;59.320;18.042;2023-01-29T04:16:37;100466.16;;;-1.05;100.00
25658;BME280;13517;59.320;18.042;2023-01-29T04:19:04;100448.53;;;-1.07;100.00
25658;BME280;13517;59.320;18.042;2023-01-29T04:21:30;100441.59;;;-1.13;100.00
25658;BME280;13517;59.320;18.042;2023-01-29T04:23:58;100469.41;;;-0.92;100.00
25658;BME280;13517;59.320;18.042;2023-01-29T04:31:53;100510.22;;;-0.57;100.00
25658;BME280;13517;59.320;18.042;2023-01-29T04:34:59;100506.69;;;-0.57;100.00
25658;BME280;13517;59.320;18.042;2023-01-29T04:37:36;100507.53;;;-0.55;100.00
25658;BME280;13517;59.320;18.042;2023-01-29T04:40:25;100499.59;;;-0.55;100.00
25658;BME280;13517;59.320;18.042;2023-01-29T04:43:08;100492.41;;;-0.51;100.00
25658;BME280;13517;59.320;18.042;2023-01-29T04:48:29;100469.69;;;-0.63;100.00
25658;BME280;13517;59.320;18.042;2023-01-29T04:53:52;100457.22;;;-0.60;100.00
25658;BME280;13517;59.320;18.042;2023-01-29T04:59:30;100460.59;;;-0.53;100.00
25658;BME280;13517;59.320;18.042;2023-01-29T05:01:59;100430.94;;;-0.71;100.00
25658;BME280;13517;59.320;18.042;2023-01-29T05:04:26;100427.31;;;-0.66;100.00
25658;BME280;13517;59.320;18.042;2023-01-29T05:06:54;100437.63;;;-0.54;100.00
25658;BME280;13517;59.320;18.042;2023-01-29T05:09:20;100372.00;;;-0.84;100.00
25658;BME280;13517;59.320;18.042;2023-01-29T05:11:47;100435.59;;;-0.43;100.00
25658;BME280;13517;59.320;18.042;2023-01-29T05:14:16;100412.56;;;-0.40;100.00
25658;BME280;13517;59.320;18.042;2023-01-29T05:16:46;100415.13;;;-0.37;100.00
25658;BME280;13517;59.320;18.042;2023-01-29T05:19:13;100380.91;;;-0.50;100.00
25658;BME280;13517;59.320;18.042;2023-01-29T05:21:42;100406.19;;;-0.33;100.00
25658;BME280;13517;59.320;18.042;2023-01-29T05:26:35;100387.56;;;-0.32;100.00
25658;BME280;13517;59.320;18.042;2023-01-29T05:29:19;100369.84;;;-0.31;100.00
25658;BME280;13517;59.320;18.042;2023-01-29T05:31:45;100363.78;;;-0.36;100.00
25658;BME280;13517;59.320;18.042;2023-01-29T05:34:10;100336.72;;;-0.51;100.00
25658;BME280;13517;59.320;18.042;2023-01-29T05:36:36;100206.00;;;-1.29;100.00
25658;BME280;13517;59.320;18.042;2023-01-29T05:39:01;100289.59;;;-0.76;100.00
25658;BME280;13517;59.320;18.042;2023-01-29T05:41:27;100327.84;;;-0.50;100.00
25658;BME280;13517;59.320;18.042;2023-01-29T05:43:52;100309.44;;;-0.56;100.00
25658;BME280;13517;59.320;18.042;2023-01-29T05:46:18;100303.25;;;-0.57;100.00
25658;BME280;13517;59.320;18.042;2023-01-29T05:48:43;100309.34;;;-0.51;100.00
25658;BME280;13517;59.320;18.042;2023-01-29T05:51:08;100336.41;;;-0.38;100.00
25658;BME280;13517;59.320;18.042;2023-01-29T05:53:34;100329.50;;;-0.44;100.00
25658;BME280;13517;59.320;18.042;2023-01-29T05:56:01;100330.03;;;-0.31;100.00
25658;BME280;13517;59.320;18.042;2023-01-29T05:58:26;100287.34;;;-0.57;100.00
25658;BME280;13517;59.320;18.042;2023-01-29T06:00:52;100311.63;;;-0.37;100.00
25658;BME280;13517;59.320;18.042;2023-01-29T06:03:17;100280.19;;;-0.53;100.00
25658;BME280;13517;59.320;18.042;2023-01-29T06:05:43;100228.78;;;-0.84;100.00
25658;BME280;13517;59.320;18.042;2023-01-29T06:08:08;100294.09;;;-0.45;100.00
25658;BME280;13517;59.320;18.042;2023-01-29T06:10:34;100283.66;;;-0.51;100.00
25658;BME280;13517;59.320;18.042;2023-01-29T06:12:59;100279.34;;;-0.55;100.00
25658;BME280;13517;59.320;18.042;2023-01-29T06:15:25;100287.19;;;-0.50;100.00
25658;BME280;13517;59.320;18.042;2023-01-29T06:17:54;100275.78;;;-0.54;100.00
25658;BME280;13517;59.320;18.042;2023-01-29T06:20:19;100283.50;;;-0.45;100.00
25658;BME280;13517;59.320;18.042;2023-01-29T06:22:45;100256.59;;;-0.65;100.00
25658;BME280;13517;59.320;18.042;2023-01-29T06:25:10;100273.97;;;-0.53;100.00
25658;BME280;13517;59.320;18.042;2023-01-29T06:27:36;100330.78;;;-0.26;100.00
25658;BME280;13517;59.320;18.042;2023-01-29T06:30:03;100287.38;;;-0.58;100.00
25658;BME280;13517;59.320;18.042;2023-01-29T06:32:29;100265.44;;;-0.65;100.00
25658;BME280;13517;59.320;18.042;2023-01-29T06:34:54;100267.22;;;-0.65;100.00
25658;BME280;13517;59.320;18.042;2023-01-29T06:37:20;100249.72;;;-0.73;100.00
25658;BME280;13517;59.320;18.042;2023-01-29T06:39:45;100307.97;;;-0.33;100.00
25658;BME280;13517;59.320;18.042;2023-01-29T06:42:10;100302.72;;;-0.36;100.00
25658;BME280;13517;59.320;18.042;2023-01-29T06:44:36;100296.44;;;-0.32;100.00
25658;BME280;13517;59.320;18.042;2023-01-29T06:47:01;100244.13;;;-0.62;100.00
25658;BME280;13517;59.320;18.042;2023-01-29T06:49:27;100317.31;;;-0.18;100.00
25658;BME280;13517;59.320;18.042;2023-01-29T06:51:52;100301.38;;;-0.18;100.00
25658;BME280;13517;59.320;18.042;2023-01-29T06:54:17;100226.56;;;-0.66;100.00
25658;BME280;13517;59.320;18.042;2023-01-29T06:56:43;100304.94;;;-0.19;100.00
25658;BME280;13517;59.320;18.042;2023-01-29T06:59:09;100245.53;;;-0.47;100.00
25658;BME280;13517;59.320;18.042;2023-01-29T07:01:38;100291.72;;;-0.21;100.00
25658;BME280;13517;59.320;18.042;2023-01-29T07:04:05;100243.81;;;-0.49;100.00
25658;BME280;13517;59.320;18.042;2023-01-29T07:06:31;100251.59;;;-0.42;100.00
25658;BME280;13517;59.320;18.042;2023-01-29T07:08:56;100237.72;;;-0.53;100.00
25658;BME280;13517;59.320;18.042;2023-01-29T07:11:22;100258.84;;;-0.50;100.00
25658;BME280;13517;59.320;18.042;2023-01-29T07:13:47;100245.00;;;-0.61;100.00
25658;BME280;13517;59.320;18.042;2023-01-29T07:16:12;100225.06;;;-0.76;100.00
25658;BME280;13517;59.320;18.042;2023-01-29T07:18:38;100249.44;;;-0.62;100.00
25658;BME280;13517;59.320;18.042;2023-01-29T07:21:04;100136.28;;;-1.31;100.00
25658;BME280;13517;59.320;18.042;2023-01-29T07:23:31;100154.44;;;-1.15;100.00
25658;BME280;13517;59.320;18.042;2023-01-29T07:26:00;100170.97;;;-1.04;100.00
25658;BME280;13517;59.320;18.042;2023-01-29T07:28:26;100196.09;;;-0.84;100.00
25658;BME280;13517;59.320;18.042;2023-01-29T07:30:55;100209.22;;;-0.79;100.00
25658;BME280;13517;59.320;18.042;2023-01-29T07:33:21;100146.47;;;-1.14;100.00
25658;BME280;13517;59.320;18.042;2023-01-29T07:35:46;100073.91;;;-1.44;100.00
25658;BME280;13517;59.320;18.042;2023-01-29T07:38:11;100166.00;;;-0.83;100.00
25658;BME280;13517;59.320;18.042;2023-01-29T07:40:37;100214.50;;;-0.45;100.00
25658;BME280;13517;59.320;18.042;2023-01-29T07:43:05;100175.25;;;-0.65;100.00
25658;BME280;13517;59.320;18.042;2023-01-29T07:45:33;100205.63;;;-0.44;100.00
25658;BME280;13517;59.320;18.042;2023-01-29T07:47:59;100223.84;;;-0.30;100.00
25658;BME280;13517;59.320;18.042;2023-01-29T07:50:25;100199.19;;;-0.35;100.00
25658;BME280;13517;59.320;18.042;2023-01-29T07:52:52;100199.81;;;-0.25;100.00
25658;BME280;13517;59.320;18.042;2023-01-29T07:55:18;100132.81;;;-0.65;100.00
25658;BME280;13517;59.320;18.042;2023-01-29T07:57:43;100203.03;;;-0.13;100.00
25658;BME280;13517;59.320;18.042;2023-01-29T08:00:10;100179.25;;;-0.18;100.00
25658;BME280;13517;59.320;18.042;2023-01-29T08:02:36;100143.47;;;-0.35;100.00
25658;BME280;13517;59.320;18.042;2023-01-29T08:05:01;100176.25;;;-0.06;100.00
25658;BME280;13517;59.320;18.042;2023-01-29T08:07:27;100165.59;;;-0.04;100.00
25658;BME280;13517;59.320;18.042;2023-01-29T08:09:52;100141.31;;;-0.22;100.00
25658;BME280;13517;59.320;18.042;2023-01-29T08:12:18;100133.47;;;-0.26;100.00
25658;BME280;13517;59.320;18.042;2023-01-29T08:14:43;100166.38;;;-0.01;100.00
25658;BME280;13517;59.320;18.042;2023-01-29T08:17:10;100122.66;;;-0.19;100.00
25658;BME280;13517;59.320;18.042;2023-01-29T08:19:36;100138.09;;;-0.03;100.00
25658;BME280;13517;59.320;18.042;2023-01-29T08:22:02;100121.19;;;0.01;100.00
25658;BME280;13517;59.320;18.042;2023-01-29T08:24:28;100115.75;;;0.04;100.00
25658;BME280;13517;59.320;18.042;2023-01-29T08:26:53;100138.38;;;0.18;100.00
25658;BME280;13517;59.320;18.042;2023-01-29T08:29:18;100090.25;;;0.00;100.00
25658;BME280;13517;59.320;18.042;2023-01-29T08:31:44;100078.78;;;-0.02;100.00
25658;BME280;13517;59.320;18.042;2023-01-29T08:34:09;100072.53;;;-0.01;100.00
25658;BME280;13517;59.320;18.042;2023-01-29T08:36:35;100113.16;;;0.31;100.00
25658;BME280;13517;59.320;18.042;2023-01-29T08:39:00;100115.97;;;0.26;100.00
25658;BME280;13517;59.320;18.042;2023-01-29T08:41:26;100048.97;;;-0.12;100.00
25658;BME280;13517;59.320;18.042;2023-01-29T08:43:51;100100.09;;;0.23;100.00
25658;BME280;13517;59.320;18.042;2023-01-29T08:46:16;100114.78;;;0.35;100.00
25658;BME280;13517;59.320;18.042;2023-01-29T08:48:42;100126.88;;;0.46;100.00
25658;BME280;13517;59.320;18.042;2023-01-29T08:51:07;100123.28;;;0.47;100.00
25658;BME280;13517;59.320;18.042;2023-01-29T08:53:33;100092.44;;;0.43;100.00
25658;BME280;13517;59.320;18.042;2023-01-29T08:55:58;100091.25;;;0.51;100.00
25658;BME280;13517;59.320;18.042;2023-01-29T08:58:24;100056.03;;;0.45;100.00
25658;BME280;13517;59.320;18.042;2023-01-29T09:00:49;100086.25;;;0.69;100.00
25658;BME280;13517;59.320;18.042;2023-01-29T09:03:15;100046.97;;;0.50;100.00
25658;BME280;13517;59.320;18.042;2023-01-29T09:05:40;100023.44;;;0.39;100.00
25658;BME280;13517;59.320;18.042;2023-01-29T09:08:07;100073.63;;;0.74;100.00
25658;BME280;13517;59.320;18.042;2023-01-29T09:10:33;100084.81;;;0.84;100.00
25658;BME280;13517;59.320;18.042;2023-01-29T09:12:59;100092.00;;;0.82;100.00
25658;BME280;13517;59.320;18.042;2023-01-29T09:15:25;100045.44;;;0.70;100.00
25658;BME280;13517;59.320;18.042;2023-01-29T09:17:50;100051.09;;;0.86;100.00
25658;BME280;13517;59.320;18.042;2023-01-29T09:20:17;100042.19;;;0.87;100.00
25658;BME280;13517;59.320;18.042;2023-01-29T09:22:44;100017.72;;;0.77;100.00
25658;BME280;13517;59.320;18.042;2023-01-29T09:25:09;100021.56;;;0.68;100.00
25658;BME280;13517;59.320;18.042;2023-01-29T09:27:35;100018.19;;;0.63;100.00
25658;BME280;13517;59.320;18.042;2023-01-29T09:30:01;100069.41;;;0.94;100.00
25658;BME280;13517;59.320;18.042;2023-01-29T09:32:27;100081.84;;;0.93;100.00
25658;BME280;13517;59.320;18.042;2023-01-29T09:34:55;100047.50;;;0.87;100.00
25658;BME280;13517;59.320;18.042;2023-01-29T09:37:21;100046.34;;;0.94;100.00
25658;BME280;13517;59.320;18.042;2023-01-29T09:39:48;100040.88;;;0.99;100.00
25658;BME280;13517;59.320;18.042;2023-01-29T09:47:34;99995.13;;;0.89;100.00
25658;BME280;13517;59.320;18.042;2023-01-29T09:52:35;100016.19;;;1.19;100.00
25658;BME280;13517;59.320;18.042;2023-01-29T09:55:11;100017.91;;;1.20;100.00
25658;BME280;13517;59.320;18.042;2023-01-29T09:57:44;99978.69;;;1.03;100.00
25658;BME280;13517;59.320;18.042;2023-01-29T10:00:38;100011.69;;;1.21;100.00
25658;BME280;13517;59.320;18.042;2023-01-29T10:05:46;100013.38;;;1.24;100.00
25658;BME280;13517;59.320;18.042;2023-01-29T10:09:27;100013.53;;;1.19;100.00
25658;BME280;13517;59.320;18.042;2023-01-29T10:14:10;99987.63;;;1.25;100.00
25658;BME280;13517;59.320;18.042;2023-01-29T10:16:48;99980.44;;;1.27;100.00
25658;BME280;13517;59.320;18.042;2023-01-29T10:25:15;99914.09;;;1.00;100.00
25658;BME280;13517;59.320;18.042;2023-01-29T10:27:47;99954.44;;;1.35;100.00
25658;BME280;13517;59.320;18.042;2023-01-29T10:30:36;99960.59;;;1.35;100.00
25658;BME280;13517;59.320;18.042;2023-01-29T10:33:05;99943.09;;;1.30;100.00
25658;BME280;13517;59.320;18.042;2023-01-29T10:35:38;99968.34;;;1.42;100.00
25658;BME280;13517;59.320;18.042;2023-01-29T10:38:19;99932.31;;;1.33;100.00
25658;BME280;13517;59.320;18.042;2023-01-29T10:49:28;99926.28;;;1.52;100.00
25658;BME280;13517;59.320;18.042;2023-01-29T10:52:40;99914.13;;;1.44;100.00
25658;BME280;13517;59.320;18.042;2023-01-29T11:00:34;99876.50;;;1.31;100.00
25658;BME280;13517;59.320;18.042;2023-01-29T11:03:12;99910.34;;;1.50;100.00
25658;BME280;13517;59.320;18.042;2023-01-29T11:05:47;99869.56;;;1.49;100.00
25658;BME280;13517;59.320;18.042;2023-01-29T11:08:19;99892.34;;;1.57;100.00
25658;BME280;13517;59.320;18.042;2023-01-29T11:13:16;99868.50;;;1.54;100.00
25658;BME280;13517;59.320;18.042;2023-01-29T11:15:42;99834.34;;;1.43;100.00
25658;BME280;13517;59.320;18.042;2023-01-29T11:18:10;99865.53;;;1.61;100.00
25658;BME280;13517;59.320;18.042;2023-01-29T11:20:44;99863.28;;;1.73;100.00
25658;BME280;13517;59.320;18.042;2023-01-29T11:23:25;99857.91;;;1.74;100.00
25658;BME280;13517;59.320;18.042;2023-01-29T11:25:53;99845.25;;;1.80;100.00
25658;BME280;13517;59.320;18.042;2023-01-29T11:28:45;99843.59;;;1.77;100.00
25658;BME280;13517;59.320;18.042;2023-01-29T11:31:35;99816.16;;;1.75;100.00
25658;BME280;13517;59.320;18.042;2023-01-29T11:34:04;99797.72;;;1.70;100.00
25658;BME280;13517;59.320;18.042;2023-01-29T11:36:35;99796.66;;;1.74;100.00
25658;BME280;13517;59.320;18.042;2023-01-29T11:39:18;99799.72;;;1.86;100.00
25658;BME280;13517;59.320;18.042;2023-01-29T11:47:19;99773.56;;;1.96;100.00
25658;BME280;13517;59.320;18.042;2023-01-29T11:52:18;99751.53;;;1.92;100.00
25658;BME280;13517;59.320;18.042;2023-01-29T11:59:49;99720.19;;;1.97;100.00
25658;BME280;13517;59.320;18.042;2023-01-29T12:02:42;99730.56;;;2.03;100.00
25658;BME280;13517;59.320;18.042;2023-01-29T12:05:21;99688.50;;;1.91;100.00
25658;BME280;13517;59.320;18.042;2023-01-29T12:07:49;99696.88;;;2.02;100.00
25658;BME280;13517;59.320;18.042;2023-01-29T12:10:32;99710.44;;;2.17;100.00
25658;BME280;13517;59.320;18.042;2023-01-29T12:15:35;99671.25;;;2.19;100.00
25658;BME280;13517;59.320;18.042;2023-01-29T12:20:31;99625.19;;;1.98;100.00
25658;BME280;13517;59.320;18.042;2023-01-29T12:31:26;99638.66;;;2.14;100.00
25658;BME280;13517;59.320;18.042;2023-01-29T12:36:30;99610.75;;;2.02;100.00
25658;BME280;13517;59.320;18.042;2023-01-29T12:38:57;99601.94;;;2.01;100.00
25658;BME280;13517;59.320;18.042;2023-01-29T12:41:40;99608.94;;;2.22;100.00
25658;BME280;13517;59.320;18.042;2023-01-29T12:44:18;99598.75;;;2.12;100.00
25658;BME280;13517;59.320;18.042;2023-01-29T12:46:49;99592.53;;;2.12;100.00
25658;BME280;13517;59.320;18.042;2023-01-29T12:49:29;99597.69;;;2.16;100.00
25658;BME280;13517;59.320;18.042;2023-01-29T12:52:10;99592.75;;;2.26;100.00
25658;BME280;13517;59.320;18.042;2023-01-29T12:54:42;99575.38;;;2.37;100.00
25658;BME280;13517;59.320;18.042;2023-01-29T12:57:23;99565.72;;;2.34;100.00
25658;BME280;13517;59.320;18.042;2023-01-29T13:00:27;99568.81;;;2.44;100.00
25658;BME280;13517;59.320;18.042;2023-01-29T13:03:19;99560.56;;;2.49;100.00
25658;BME280;13517;59.320;18.042;2023-01-29T13:05:55;99569.34;;;2.51;100.00
25658;BME280;13517;59.320;18.042;2023-01-29T13:11:18;99554.00;;;2.38;100.00
25658;BME280;13517;59.320;18.042;2023-01-29T13:13:58;99564.19;;;2.48;100.00
25658;BME280;13517;59.320;18.042;2023-01-29T13:16:29;99559.16;;;2.41;100.00
25658;BME280;13517;59.320;18.042;2023-01-29T13:18:59;99560.44;;;2.52;100.00
25658;BME280;13517;59.320;18.042;2023-01-29T13:21:33;99544.28;;;2.55;100.00
25658;BME280;13517;59.320;18.042;2023-01-29T13:24:09;99528.28;;;2.55;100.00
25658;BME280;13517;59.320;18.042;2023-01-29T13:26:36;99508.84;;;2.53;100.00
25658;BME280;13517;59.320;18.042;2023-01-29T13:29:02;99457.78;;;2.25;100.00
25658;BME280;13517;59.320;18.042;2023-01-29T13:31:34;99478.94;;;2.46;100.00
25658;BME280;13517;59.320;18.042;2023-01-29T13:36:45;99436.00;;;2.35;100.00
25658;BME280;13517;59.320;18.042;2023-01-29T13:39:31;99497.38;;;2.68;100.00
25658;BME280;13517;59.320;18.042;2023-01-29T13:41:59;99477.13;;;2.64;100.00
25658;BME280;13517;59.320;18.042;2023-01-29T13:47:00;99452.44;;;2.61;100.00
25658;BME280;13517;59.320;18.042;2023-01-29T13:52:25;99474.00;;;2.74;100.00
25658;BME280;13517;59.320;18.042;2023-01-29T13:54:57;99456.59;;;2.66;100.00
25658;BME280;13517;59.320;18.042;2023-01-29T13:57:33;99460.50;;;2.77;100.00
25658;BME280;13517;59.320;18.042;2023-01-29T13:59:59;99431.03;;;2.62;100.00
25658;BME280;13517;59.320;18.042;2023-01-29T14:02:26;99435.47;;;2.79;100.00
25658;BME280;13517;59.320;18.042;2023-01-29T14:07:59;99400.50;;;2.68;100.00
25658;BME280;13517;59.320;18.042;2023-01-29T14:10:30;99413.19;;;2.80;100.00
25658;BME280;13517;59.320;18.042;2023-01-29T14:15:32;99393.56;;;2.81;100.00
25658;BME280;13517;59.320;18.042;2023-01-29T14:20:38;99375.41;;;2.72;100.00
25658;BME280;13517;59.320;18.042;2023-01-29T14:23:04;99350.34;;;2.58;100.00
25658;BME280;13517;59.320;18.042;2023-01-29T14:25:36;99394.19;;;2.86;100.00
25658;BME280;13517;59.320;18.042;2023-01-29T14:28:03;99381.97;;;2.82;100.00
25658;BME280;13517;59.320;18.042;2023-01-29T14:30:38;99356.50;;;2.77;100.00
25658;BME280;13517;59.320;18.042;2023-01-29T14:33:14;99346.72;;;2.77;100.00
25658;BME280;13517;59.320;18.042;2023-01-29T14:35:51;99340.91;;;2.69;100.00
25658;BME280;13517;59.320;18.042;2023-01-29T14:38:21;99343.78;;;2.82;100.00
25658;BME280;13517;59.320;18.042;2023-01-29T14:40:48;99337.41;;;2.84;100.00
25658;BME280;13517;59.320;18.042;2023-01-29T14:43:18;99308.00;;;2.70;100.00
25658;BME280;13517;59.320;18.042;2023-01-29T14:45:46;99351.00;;;2.96;100.00
25658;BME280;13517;59.320;18.042;2023-01-29T14:48:35;99343.19;;;2.93;100.00
25658;BME280;13517;59.320;18.042;2023-01-29T14:51:07;99274.00;;;2.57;100.00
25658;BME280;13517;59.320;18.042;2023-01-29T14:53:55;99321.09;;;2.91;100.00
25658;BME280;13517;59.320;18.042;2023-01-29T14:58:52;99315.38;;;2.97;100.00
25658;BME280;13517;59.320;18.042;2023-01-29T15:01:25;99313.84;;;2.93;100.00
25658;BME280;13517;59.320;18.042;2023-01-29T15:04:01;99268.06;;;2.68;100.00
25658;BME280;13517;59.320;18.042;2023-01-29T15:06:45;99285.28;;;2.95;100.00
25658;BME280;13517;59.320;18.042;2023-01-29T15:09:19;99270.97;;;2.96;100.00
25658;BME280;13517;59.320;18.042;2023-01-29T15:12:13;99259.34;;;2.97;100.00
25658;BME280;13517;59.320;18.042;2023-01-29T15:17:40;99202.50;;;2.80;100.00
25658;BME280;13517;59.320;18.042;2023-01-29T15:20:26;99226.25;;;3.01;100.00
25658;BME280;13517;59.320;18.042;2023-01-29T15:22:52;99210.59;;;2.95;100.00